sensor_id;sensor_type;location;lat;lon;timestamp;temperature;humidity
79760;DHT22;70512;42.122;24.732;2024-02-15T00:01:06;9.10;61.30
79760;DHT22;70512;42.122;24.732;2024-02-15T00:03:34;9.10;61.30
79760;DHT22;70512;42.122;24.732;2024-02-15T00:06:02;9.00;61.50
79760;DHT22;70512;42.122;24.732;2024-02-15T00:08:30;9.00;61.50
79760;DHT22;70512;42.122;24.732;2024-02-15T00:10:59;9.00;61.40
79760;DHT22;70512;42.122;24.732;2024-02-15T00:13:27;9.00;61.60
79760;DHT22;70512;42.122;24.732;2024-02-15T00:15:54;9.00;61.70
79760;DHT22;70512;42.122;24.732;2024-02-15T00:18:22;9.00;61.70
79760;DHT22;70512;42.122;24.732;2024-02-15T00:20:50;8.90;61.70
79760;DHT22;70512;42.122;24.732;2024-02-15T00:23:17;8.80;61.90
79760;DHT22;70512;42.122;24.732;2024-02-15T00:25:45;8.80;62.30
79760;DHT22;70512;42.122;24.732;2024-02-15T00:28:13;8.70;62.20
79760;DHT22;70512;42.122;24.732;2024-02-15T00:30:40;8.80;62.30
79760;DHT22;70512;42.122;24.732;2024-02-15T00:33:08;8.80;62.20
79760;DHT22;70512;42.122;24.732;2024-02-15T00:35:36;8.80;62.30
79760;DHT22;70512;42.122;24.732;2024-02-15T00:38:04;8.80;62.10
79760;DHT22;70512;42.122;24.732;2024-02-15T00:40:33;8.80;62.00
79760;DHT22;70512;42.122;24.732;2024-02-15T00:43:01;8.70;62.30
79760;DHT22;70512;42.122;24.732;2024-02-15T00:45:29;8.70;62.40
79760;DHT22;70512;42.122;24.732;2024-02-15T00:47:56;8.70;62.30
79760;DHT22;70512;42.122;24.732;2024-02-15T00:50:24;8.60;62.60
79760;DHT22;70512;42.122;24.732;2024-02-15T00:52:52;8.60;62.50
79760;DHT22;70512;42.122;24.732;2024-02-15T00:55:19;8.60;62.80
79760;DHT22;70512;42.122;24.732;2024-02-15T00:57:47;8.60;63.00
79760;DHT22;70512;42.122;24.732;2024-02-15T01:00:15;8.60;62.60
79760;DHT22;70512;42.122;24.732;2024-02-15T01:02:43;8.60;62.80
79760;DHT22;70512;42.122;24.732;2024-02-15T01:05:12;8.50;63.00
79760;DHT22;70512;42.122;24.732;2024-02-15T01:07:42;8.50;62.80
79760;DHT22;70512;42.122;24.732;2024-02-15T01:10:09;8.50;62.90
79760;DHT22;70512;42.122;24.732;2024-02-15T01:12:37;8.50;63.10
79760;DHT22;70512;42.122;24.732;2024-02-15T01:15:06;8.50;63.20
79760;DHT22;70512;42.122;24.732;2024-02-15T01:17:34;8.40;63.40
79760;DHT22;70512;42.122;24.732;2024-02-15T01:20:01;8.40;63.70
79760;DHT22;70512;42.122;24.732;2024-02-15T01:22:29;8.30;63.80
79760;DHT22;70512;42.122;24.732;2024-02-15T01:24:57;8.40;64.10
79760;DHT22;70512;42.122;24.732;2024-02-15T01:27:25;8.30;63.80
79760;DHT22;70512;42.122;24.732;2024-02-15T01:29:54;8.30;64.10
79760;DHT22;70512;42.122;24.732;2024-02-15T01:32:22;8.30;64.10
79760;DHT22;70512;42.122;24.732;2024-02-15T01:34:50;8.30;64.20
79760;DHT22;70512;42.122;24.732;2024-02-15T01:37:19;8.30;63.90
79760;DHT22;70512;42.122;24.732;2024-02-15T01:39:47;8.20;64.10
79760;DHT22;70512;42.122;24.732;2024-02-15T01:42:15;8.20;64.20
79760;DHT22;70512;42.122;24.732;2024-02-15T01:44:43;8.20;64.10
79760;DHT22;70512;42.122;24.732;2024-02-15T01:47:16;8.10;64.20
79760;DHT22;70512;42.122;24.732;2024-02-15T01:49:45;8.10;64.70
79760;DHT22;70512;42.122;24.732;2024-02-15T01:52:16;8.00;64.60
79760;DHT22;70512;42.122;24.732;2024-02-15T01:54:45;8.00;65.20
79760;DHT22;70512;42.122;24.732;2024-02-15T01:57:13;7.90;65.30
79760;DHT22;70512;42.122;24.732;2024-02-15T01:59:41;7.90;64.80
79760;DHT22;70512;42.122;24.732;2024-02-15T02:02:10;7.80;65.00
79760;DHT22;70512;42.122;24.732;2024-02-15T02:04:39;7.80;65.10
79760;DHT22;70512;42.122;24.732;2024-02-15T02:07:08;7.80;65.30
79760;DHT22;70512;42.122;24.732;2024-02-15T02:09:35;7.80;65.10
79760;DHT22;70512;42.122;24.732;2024-02-15T02:12:04;7.70;65.00
79760;DHT22;70512;42.122;24.732;2024-02-15T02:14:31;7.70;65.40
79760;DHT22;70512;42.122;24.732;2024-02-15T02:17:15;7.70;65.30
79760;DHT22;70512;42.122;24.732;2024-02-15T02:19:45;7.60;65.40
79760;DHT22;70512;42.122;24.732;2024-02-15T02:22:12;7.60;65.30
79760;DHT22;70512;42.122;24.732;2024-02-15T02:24:53;7.60;65.70
79760;DHT22;70512;42.122;24.732;2024-02-15T02:27:14;7.50;65.70
79760;DHT22;70512;42.122;24.732;2024-02-15T02:29:43;7.50;65.70
79760;DHT22;70512;42.122;24.732;2024-02-15T02:32:13;7.50;65.60
79760;DHT22;70512;42.122;24.732;2024-02-15T02:34:41;7.50;65.70
79760;DHT22;70512;42.122;24.732;2024-02-15T02:37:10;7.50;65.50
79760;DHT22;70512;42.122;24.732;2024-02-15T02:39:38;7.50;65.50
79760;DHT22;70512;42.122;24.732;2024-02-15T02:42:06;7.50;65.80
79760;DHT22;70512;42.122;24.732;2024-02-15T02:44:34;7.40;65.70
79760;DHT22;70512;42.122;24.732;2024-02-15T02:47:02;7.40;66.00
79760;DHT22;70512;42.122;24.732;2024-02-15T02:49:30;7.40;66.10
79760;DHT22;70512;42.122;24.732;2024-02-15T02:51:58;7.40;66.00
79760;DHT22;70512;42.122;24.732;2024-02-15T02:54:25;7.40;66.10
79760;DHT22;70512;42.122;24.732;2024-02-15T02:56:53;7.30;66.20
79760;DHT22;70512;42.122;24.732;2024-02-15T02:59:21;7.40;66.00
79760;DHT22;70512;42.122;24.732;2024-02-15T03:01:49;7.40;66.00
79760;DHT22;70512;42.122;24.732;2024-02-15T03:04:16;7.40;65.90
79760;DHT22;70512;42.122;24.732;2024-02-15T03:06:44;7.40;65.80
79760;DHT22;70512;42.122;24.732;2024-02-15T03:09:12;7.40;65.60
79760;DHT22;70512;42.122;24.732;2024-02-15T03:11:41;7.40;65.60
79760;DHT22;70512;42.122;24.732;2024-02-15T03:14:09;7.40;65.50
79760;DHT22;70512;42.122;24.732;2024-02-15T03:16:37;7.40;65.70
79760;DHT22;70512;42.122;24.732;2024-02-15T03:19:05;7.40;65.70
79760;DHT22;70512;42.122;24.732;2024-02-15T03:21:35;7.40;66.00
79760;DHT22;70512;42.122;24.732;2024-02-15T03:24:02;7.40;65.80
79760;DHT22;70512;42.122;24.732;2024-02-15T03:26:31;7.40;65.80
79760;DHT22;70512;42.122;24.732;2024-02-15T03:29:07;7.40;65.80
79760;DHT22;70512;42.122;24.732;2024-02-15T03:31:37;7.40;65.70
79760;DHT22;70512;42.122;24.732;2024-02-15T03:34:05;7.50;65.50
79760;DHT22;70512;42.122;24.732;2024-02-15T03:36:32;7.50;65.40
79760;DHT22;70512;42.122;24.732;2024-02-15T03:39:00;7.60;65.20
79760;DHT22;70512;42.122;24.732;2024-02-15T03:41:28;7.60;65.30
79760;DHT22;70512;42.122;24.732;2024-02-15T03:43:58;7.60;64.90
79760;DHT22;70512;42.122;24.732;2024-02-15T03:46:26;7.60;65.00
79760;DHT22;70512;42.122;24.732;2024-02-15T03:48:54;7.60;65.00
79760;DHT22;70512;42.122;24.732;2024-02-15T03:51:23;7.70;64.90
79760;DHT22;70512;42.122;24.732;2024-02-15T03:53:51;7.70;64.40
79760;DHT22;70512;42.122;24.732;2024-02-15T03:56:19;7.80;65.00
79760;DHT22;70512;42.122;24.732;2024-02-15T03:58:48;7.80;64.20
79760;DHT22;70512;42.122;24.732;2024-02-15T04:01:17;7.80;63.50
79760;DHT22;70512;42.122;24.732;2024-02-15T04:03:44;7.80;63.60
79760;DHT22;70512;42.122;24.732;2024-02-15T04:06:14;7.80;63.80
79760;DHT22;70512;42.122;24.732;2024-02-15T04:08:42;7.80;63.90
79760;DHT22;70512;42.122;24.732;2024-02-15T04:11:10;7.90;63.80
79760;DHT22;70512;42.122;24.732;2024-02-15T04:13:38;7.90;63.30
79760;DHT22;70512;42.122;24.732;2024-02-15T04:16:05;7.90;63.50
79760;DHT22;70512;42.122;24.732;2024-02-15T04:18:34;7.80;63.30
79760;DHT22;70512;42.122;24.732;2024-02-15T04:21:01;7.80;63.30
79760;DHT22;70512;42.122;24.732;2024-02-15T04:23:29;7.80;63.50
79760;DHT22;70512;42.122;24.732;2024-02-15T04:25:57;7.80;63.50
79760;DHT22;70512;42.122;24.732;2024-02-15T04:28:26;7.90;63.40
79760;DHT22;70512;42.122;24.732;2024-02-15T04:30:54;7.90;63.10
79760;DHT22;70512;42.122;24.732;2024-02-15T04:33:22;7.80;63.30
79760;DHT22;70512;42.122;24.732;2024-02-15T04:35:49;7.90;63.30
79760;DHT22;70512;42.122;24.732;2024-02-15T04:38:19;7.90;63.40
79760;DHT22;70512;42.122;24.732;2024-02-15T04:40:46;7.90;63.00
79760;DHT22;70512;42.122;24.732;2024-02-15T04:43:15;7.90;63.00
79760;DHT22;70512;42.122;24.732;2024-02-15T04:45:43;7.80;63.00
79760;DHT22;70512;42.122;24.732;2024-02-15T04:48:12;7.90;64.10
79760;DHT22;70512;42.122;24.732;2024-02-15T04:50:41;7.90;62.90
79760;DHT22;70512;42.122;24.732;2024-02-15T04:53:09;7.90;63.10
79760;DHT22;70512;42.122;24.732;2024-02-15T04:55:38;7.80;63.00
79760;DHT22;70512;42.122;24.732;2024-02-15T04:58:06;7.80;63.40
79760;DHT22;70512;42.122;24.732;2024-02-15T05:00:34;7.90;63.60
79760;DHT22;70512;42.122;24.732;2024-02-15T05:03:03;7.80;63.30
79760;DHT22;70512;42.122;24.732;2024-02-15T05:05:30;7.80;63.30
79760;DHT22;70512;42.122;24.732;2024-02-15T05:07:58;7.90;64.10
79760;DHT22;70512;42.122;24.732;2024-02-15T05:10:27;7.90;63.40
79760;DHT22;70512;42.122;24.732;2024-02-15T05:12:55;7.90;63.80
79760;DHT22;70512;42.122;24.732;2024-02-15T05:15:23;7.90;63.40
79760;DHT22;70512;42.122;24.732;2024-02-15T05:17:51;7.90;63.60
79760;DHT22;70512;42.122;24.732;2024-02-15T05:20:20;7.90;63.00
79760;DHT22;70512;42.122;24.732;2024-02-15T05:22:48;8.00;63.20
79760;DHT22;70512;42.122;24.732;2024-02-15T05:25:16;8.00;63.10
79760;DHT22;70512;42.122;24.732;2024-02-15T05:27:45;8.00;63.20
79760;DHT22;70512;42.122;24.732;2024-02-15T05:30:13;8.10;63.10
79760;DHT22;70512;42.122;24.732;2024-02-15T05:32:41;8.10;63.20
79760;DHT22;70512;42.122;24.732;2024-02-15T05:35:10;8.20;63.60
79760;DHT22;70512;42.122;24.732;2024-02-15T05:37:39;8.20;63.00
79760;DHT22;70512;42.122;24.732;2024-02-15T05:40:07;8.20;62.50
79760;DHT22;70512;42.122;24.732;2024-02-15T05:42:36;8.20;62.30
79760;DHT22;70512;42.122;24.732;2024-02-15T05:45:28;8.30;62.50
79760;DHT22;70512;42.122;24.732;2024-02-15T05:47:56;8.40;62.20
79760;DHT22;70512;42.122;24.732;2024-02-15T05:50:25;8.30;62.10
79760;DHT22;70512;42.122;24.732;2024-02-15T05:52:54;8.40;61.70
79760;DHT22;70512;42.122;24.732;2024-02-15T05:55:22;8.40;61.70
79760;DHT22;70512;42.122;24.732;2024-02-15T05:57:49;8.40;61.30
79760;DHT22;70512;42.122;24.732;2024-02-15T06:00:19;8.40;61.50
79760;DHT22;70512;42.122;24.732;2024-02-15T06:02:46;8.40;61.60
79760;DHT22;70512;42.122;24.732;2024-02-15T06:05:15;8.40;61.50
79760;DHT22;70512;42.122;24.732;2024-02-15T06:07:44;8.40;61.80
79760;DHT22;70512;42.122;24.732;2024-02-15T06:10:12;8.40;61.80
79760;DHT22;70512;42.122;24.732;2024-02-15T06:12:41;8.50;62.20
79760;DHT22;70512;42.122;24.732;2024-02-15T06:15:10;8.40;61.50
79760;DHT22;70512;42.122;24.732;2024-02-15T06:17:39;8.40;62.10
79760;DHT22;70512;42.122;24.732;2024-02-15T06:20:07;8.50;62.50
79760;DHT22;70512;42.122;24.732;2024-02-15T06:22:37;8.60;61.20
79760;DHT22;70512;42.122;24.732;2024-02-15T06:25:06;8.70;61.20
79760;DHT22;70512;42.122;24.732;2024-02-15T06:27:34;8.60;61.00
79760;DHT22;70512;42.122;24.732;2024-02-15T06:30:03;8.70;61.00
79760;DHT22;70512;42.122;24.732;2024-02-15T06:32:49;8.80;61.10
79760;DHT22;70512;42.122;24.732;2024-02-15T06:35:33;8.80;60.30
79760;DHT22;70512;42.122;24.732;2024-02-15T06:38:19;8.80;60.40
79760;DHT22;70512;42.122;24.732;2024-02-15T06:40:57;8.80;60.10
79760;DHT22;70512;42.122;24.732;2024-02-15T06:43:25;8.80;60.60
79760;DHT22;70512;42.122;24.732;2024-02-15T06:45:52;8.90;60.30
79760;DHT22;70512;42.122;24.732;2024-02-15T06:48:21;8.90;60.80
79760;DHT22;70512;42.122;24.732;2024-02-15T06:50:49;9.10;59.90
79760;DHT22;70512;42.122;24.732;2024-02-15T06:53:17;9.20;59.60
79760;DHT22;70512;42.122;24.732;2024-02-15T06:55:47;9.20;59.10
79760;DHT22;70512;42.122;24.732;2024-02-15T06:58:18;9.20;59.00
79760;DHT22;70512;42.122;24.732;2024-02-15T07:00:48;9.20;59.30
79760;DHT22;70512;42.122;24.732;2024-02-15T07:03:16;9.10;59.70
79760;DHT22;70512;42.122;24.732;2024-02-15T07:05:44;9.20;59.50
79760;DHT22;70512;42.122;24.732;2024-02-15T07:08:12;9.20;59.10
79760;DHT22;70512;42.122;24.732;2024-02-15T07:10:39;9.20;59.10
79760;DHT22;70512;42.122;24.732;2024-02-15T07:13:07;9.50;58.90
79760;DHT22;70512;42.122;24.732;2024-02-15T07:15:36;9.70;58.30
79760;DHT22;70512;42.122;24.732;2024-02-15T07:18:05;9.80;57.80
79760;DHT22;70512;42.122;24.732;2024-02-15T07:20:34;9.80;57.00
79760;DHT22;70512;42.122;24.732;2024-02-15T07:23:01;9.90;57.30
79760;DHT22;70512;42.122;24.732;2024-02-15T07:25:30;10.20;56.60
79760;DHT22;70512;42.122;24.732;2024-02-15T07:27:57;10.50;56.30
79760;DHT22;70512;42.122;24.732;2024-02-15T07:30:25;10.60;55.70
79760;DHT22;70512;42.122;24.732;2024-02-15T07:32:53;10.40;55.70
79760;DHT22;70512;42.122;24.732;2024-02-15T07:35:20;10.60;56.20
79760;DHT22;70512;42.122;24.732;2024-02-15T07:37:54;10.90;54.90
79760;DHT22;70512;42.122;24.732;2024-02-15T07:40:23;11.30;54.20
79760;DHT22;70512;42.122;24.732;2024-02-15T07:42:53;11.60;53.00
79760;DHT22;70512;42.122;24.732;2024-02-15T07:45:20;11.90;52.30
79760;DHT22;70512;42.122;24.732;2024-02-15T07:47:48;11.80;51.20
79760;DHT22;70512;42.122;24.732;2024-02-15T07:50:19;12.30;51.10
79760;DHT22;70512;42.122;24.732;2024-02-15T07:52:48;14.00;46.90
79760;DHT22;70512;42.122;24.732;2024-02-15T07:55:16;15.30;42.60
79760;DHT22;70512;42.122;24.732;2024-02-15T07:57:44;16.10;41.40
79760;DHT22;70512;42.122;24.732;2024-02-15T08:00:13;16.80;39.10
79760;DHT22;70512;42.122;24.732;2024-02-15T08:02:43;17.40;37.10
79760;DHT22;70512;42.122;24.732;2024-02-15T08:05:11;17.90;35.70
79760;DHT22;70512;42.122;24.732;2024-02-15T08:07:45;17.60;35.20
79760;DHT22;70512;42.122;24.732;2024-02-15T08:10:14;16.70;36.70
79760;DHT22;70512;42.122;24.732;2024-02-15T08:12:46;16.40;37.60
79760;DHT22;70512;42.122;24.732;2024-02-15T08:15:11;17.20;37.00
79760;DHT22;70512;42.122;24.732;2024-02-15T08:17:43;17.90;34.80
79760;DHT22;70512;42.122;24.732;2024-02-15T08:20:15;17.40;35.50
79760;DHT22;70512;42.122;24.732;2024-02-15T08:22:44;17.50;35.40
79760;DHT22;70512;42.122;24.732;2024-02-15T08:25:13;17.90;34.50
79760;DHT22;70512;42.122;24.732;2024-02-15T08:27:44;18.80;34.00
79760;DHT22;70512;42.122;24.732;2024-02-15T08:30:13;19.20;32.40
79760;DHT22;70512;42.122;24.732;2024-02-15T08:32:41;19.40;31.50
79760;DHT22;70512;42.122;24.732;2024-02-15T08:35:10;20.10;30.70
79760;DHT22;70512;42.122;24.732;2024-02-15T08:37:43;19.70;30.60
79760;DHT22;70512;42.122;24.732;2024-02-15T08:40:09;19.90;30.60
79760;DHT22;70512;42.122;24.732;2024-02-15T08:42:39;20.50;29.90
79760;DHT22;70512;42.122;24.732;2024-02-15T08:45:09;20.80;29.20
79760;DHT22;70512;42.122;24.732;2024-02-15T08:47:42;20.00;29.90
79760;DHT22;70512;42.122;24.732;2024-02-15T08:50:07;19.70;29.90
79760;DHT22;70512;42.122;24.732;2024-02-15T08:52:36;20.40;29.80
79760;DHT22;70512;42.122;24.732;2024-02-15T08:55:09;19.70;30.10
79760;DHT22;70512;42.122;24.732;2024-02-15T08:57:37;21.20;29.30
79760;DHT22;70512;42.122;24.732;2024-02-15T09:00:07;22.30;27.30
79760;DHT22;70512;42.122;24.732;2024-02-15T09:02:37;23.10;26.40
79760;DHT22;70512;42.122;24.732;2024-02-15T09:05:04;22.70;25.90
79760;DHT22;70512;42.122;24.732;2024-02-15T09:07:32;22.90;26.30
79760;DHT22;70512;42.122;24.732;2024-02-15T09:10:00;23.70;25.40
79760;DHT22;70512;42.122;24.732;2024-02-15T09:12:28;23.60;25.20
79760;DHT22;70512;42.122;24.732;2024-02-15T09:14:57;23.30;26.00
79760;DHT22;70512;42.122;24.732;2024-02-15T09:17:25;23.90;25.40
79760;DHT22;70512;42.122;24.732;2024-02-15T09:19:52;23.80;25.10
79760;DHT22;70512;42.122;24.732;2024-02-15T09:22:21;23.90;24.90
79760;DHT22;70512;42.122;24.732;2024-02-15T09:24:48;22.80;25.30
79760;DHT22;70512;42.122;24.732;2024-02-15T09:27:16;22.30;26.20
79760;DHT22;70512;42.122;24.732;2024-02-15T09:29:44;21.00;27.60
79760;DHT22;70512;42.122;24.732;2024-02-15T09:32:12;20.80;28.70
79760;DHT22;70512;42.122;24.732;2024-02-15T09:34:40;21.30;27.80
79760;DHT22;70512;42.122;24.732;2024-02-15T09:37:08;21.70;27.10
79760;DHT22;70512;42.122;24.732;2024-02-15T09:39:37;21.30;27.70
79760;DHT22;70512;42.122;24.732;2024-02-15T09:42:05;22.70;26.60
79760;DHT22;70512;42.122;24.732;2024-02-15T09:44:32;22.30;26.40
79760;DHT22;70512;42.122;24.732;2024-02-15T09:47:05;22.60;26.20
79760;DHT22;70512;42.122;24.732;2024-02-15T09:49:36;23.60;25.20
79760;DHT22;70512;42.122;24.732;2024-02-15T09:52:09;22.30;25.60
79760;DHT22;70512;42.122;24.732;2024-02-15T09:54:40;22.00;26.50
79760;DHT22;70512;42.122;24.732;2024-02-15T09:57:12;22.10;26.60
79760;DHT22;70512;42.122;24.732;2024-02-15T09:59:39;22.80;26.50
79760;DHT22;70512;42.122;24.732;2024-02-15T10:02:09;23.40;25.10
79760;DHT22;70512;42.122;24.732;2024-02-15T10:04:39;22.40;26.00
79760;DHT22;70512;42.122;24.732;2024-02-15T10:07:08;22.50;27.00
79760;DHT22;70512;42.122;24.732;2024-02-15T10:09:45;23.00;25.70
79760;DHT22;70512;42.122;24.732;2024-02-15T10:12:13;23.30;25.90
79760;DHT22;70512;42.122;24.732;2024-02-15T10:14:47;23.70;25.50
79760;DHT22;70512;42.122;24.732;2024-02-15T10:17:11;25.40;24.00
79760;DHT22;70512;42.122;24.732;2024-02-15T10:19:39;25.90;23.10
79760;DHT22;70512;42.122;24.732;2024-02-15T10:22:10;25.80;22.80
79760;DHT22;70512;42.122;24.732;2024-02-15T10:24:39;25.40;22.90
79760;DHT22;70512;42.122;24.732;2024-02-15T10:27:07;25.20;23.40
79760;DHT22;70512;42.122;24.732;2024-02-15T10:29:36;24.60;23.50
79760;DHT22;70512;42.122;24.732;2024-02-15T10:32:06;24.80;24.10
79760;DHT22;70512;42.122;24.732;2024-02-15T10:34:38;25.30;22.90
79760;DHT22;70512;42.122;24.732;2024-02-15T10:37:14;25.50;23.00
79760;DHT22;70512;42.122;24.732;2024-02-15T10:39:46;24.70;23.60
79760;DHT22;70512;42.122;24.732;2024-02-15T10:42:18;24.80;23.30
79760;DHT22;70512;42.122;24.732;2024-02-15T10:44:46;24.30;23.60
79760;DHT22;70512;42.122;24.732;2024-02-15T10:47:15;24.30;23.80
79760;DHT22;70512;42.122;24.732;2024-02-15T10:49:45;25.00;23.80
79760;DHT22;70512;42.122;24.732;2024-02-15T10:52:13;25.80;22.60
79760;DHT22;70512;42.122;24.732;2024-02-15T10:54:52;26.30;22.00
79760;DHT22;70512;42.122;24.732;2024-02-15T10:57:25;26.50;22.00
79760;DHT22;70512;42.122;24.732;2024-02-15T10:59:54;26.70;21.50
79760;DHT22;70512;42.122;24.732;2024-02-15T11:02:30;27.40;21.70
79760;DHT22;70512;42.122;24.732;2024-02-15T11:05:06;29.00;20.40
79760;DHT22;70512;42.122;24.732;2024-02-15T11:07:38;29.90;19.90
79760;DHT22;70512;42.122;24.732;2024-02-15T11:10:07;27.60;20.20
79760;DHT22;70512;42.122;24.732;2024-02-15T11:12:37;28.10;20.80
79760;DHT22;70512;42.122;24.732;2024-02-15T11:15:06;29.00;19.80
79760;DHT22;70512;42.122;24.732;2024-02-15T11:17:47;30.00;20.00
79760;DHT22;70512;42.122;24.732;2024-02-15T11:20:45;31.70;18.60
79760;DHT22;70512;42.122;24.732;2024-02-15T11:23:05;31.00;18.40
79760;DHT22;70512;42.122;24.732;2024-02-15T11:25:37;30.40;18.80
79760;DHT22;70512;42.122;24.732;2024-02-15T11:30:54;31.90;18.40
79760;DHT22;70512;42.122;24.732;2024-02-15T11:33:30;31.70;17.00
79760;DHT22;70512;42.122;24.732;2024-02-15T11:36:09;29.00;18.80
79760;DHT22;70512;42.122;24.732;2024-02-15T11:38:39;27.90;20.00
79760;DHT22;70512;42.122;24.732;2024-02-15T11:41:13;28.40;20.80
79760;DHT22;70512;42.122;24.732;2024-02-15T11:43:47;29.60;20.10
79760;DHT22;70512;42.122;24.732;2024-02-15T11:46:19;29.30;19.90
79760;DHT22;70512;42.122;24.732;2024-02-15T11:48:48;29.80;19.20
79760;DHT22;70512;42.122;24.732;2024-02-15T11:51:34;31.20;18.80
79760;DHT22;70512;42.122;24.732;2024-02-15T11:54:12;32.60;17.70
79760;DHT22;70512;42.122;24.732;2024-02-15T11:56:51;32.60;17.40
79760;DHT22;70512;42.122;24.732;2024-02-15T11:59:17;32.40;17.30
79760;DHT22;70512;42.122;24.732;2024-02-15T12:01:47;32.30;17.70
79760;DHT22;70512;42.122;24.732;2024-02-15T12:04:32;32.90;17.40
79760;DHT22;70512;42.122;24.732;2024-02-15T12:10:40;31.00;18.60
79760;DHT22;70512;42.122;24.732;2024-02-15T12:13:26;30.40;18.60
79760;DHT22;70512;42.122;24.732;2024-02-15T12:16:15;31.10;18.30
79760;DHT22;70512;42.122;24.732;2024-02-15T12:19:00;30.60;18.30
79760;DHT22;70512;42.122;24.732;2024-02-15T12:21:29;29.90;18.10
79760;DHT22;70512;42.122;24.732;2024-02-15T12:23:57;29.70;18.60
79760;DHT22;70512;42.122;24.732;2024-02-15T12:26:25;28.50;19.20
79760;DHT22;70512;42.122;24.732;2024-02-15T12:28:54;28.60;20.10
79760;DHT22;70512;42.122;24.732;2024-02-15T12:31:24;29.70;19.50
79760;DHT22;70512;42.122;24.732;2024-02-15T12:34:03;30.60;18.40
79760;DHT22;70512;42.122;24.732;2024-02-15T12:36:34;31.30;18.10
79760;DHT22;70512;42.122;24.732;2024-02-15T12:39:08;31.60;17.60
79760;DHT22;70512;42.122;24.732;2024-02-15T12:41:48;32.30;17.30
79760;DHT22;70512;42.122;24.732;2024-02-15T12:44:11;31.90;17.60
79760;DHT22;70512;42.122;24.732;2024-02-15T12:46:40;31.80;17.20
79760;DHT22;70512;42.122;24.732;2024-02-15T13:01:39;29.40;19.00
79760;DHT22;70512;42.122;24.732;2024-02-15T13:04:10;30.50;19.10
79760;DHT22;70512;42.122;24.732;2024-02-15T13:06:38;30.90;18.40
79760;DHT22;70512;42.122;24.732;2024-02-15T13:09:06;30.40;18.30
79760;DHT22;70512;42.122;24.732;2024-02-15T13:11:35;30.90;18.60
79760;DHT22;70512;42.122;24.732;2024-02-15T13:14:03;29.90;18.50
79760;DHT22;70512;42.122;24.732;2024-02-15T13:16:33;27.90;19.30
79760;DHT22;70512;42.122;24.732;2024-02-15T13:19:03;27.80;20.20
79760;DHT22;70512;42.122;24.732;2024-02-15T13:21:34;28.30;19.80
79760;DHT22;70512;42.122;24.732;2024-02-15T13:24:04;29.10;19.50
79760;DHT22;70512;42.122;24.732;2024-02-15T13:26:38;29.10;19.10
79760;DHT22;70512;42.122;24.732;2024-02-15T13:29:06;29.60;19.30
79760;DHT22;70512;42.122;24.732;2024-02-15T13:31:35;30.10;18.40
79760;DHT22;70512;42.122;24.732;2024-02-15T13:34:04;29.10;18.40
79760;DHT22;70512;42.122;24.732;2024-02-15T13:36:39;28.10;19.90
79760;DHT22;70512;42.122;24.732;2024-02-15T13:39:27;28.30;19.60
79760;DHT22;70512;42.122;24.732;2024-02-15T13:41:57;28.90;19.80
79760;DHT22;70512;42.122;24.732;2024-02-15T13:44:27;29.20;19.40
79760;DHT22;70512;42.122;24.732;2024-02-15T13:46:58;29.80;19.20
79760;DHT22;70512;42.122;24.732;2024-02-15T13:49:27;30.40;19.00
79760;DHT22;70512;42.122;24.732;2024-02-15T13:52:02;29.90;18.40
79760;DHT22;70512;42.122;24.732;2024-02-15T13:54:31;30.20;18.80
79760;DHT22;70512;42.122;24.732;2024-02-15T13:57:02;29.10;19.10
79760;DHT22;70512;42.122;24.732;2024-02-15T13:59:29;26.50;21.10
79760;DHT22;70512;42.122;24.732;2024-02-15T14:02:01;24.30;23.20
79760;DHT22;70512;42.122;24.732;2024-02-15T14:04:31;22.40;25.50
79760;DHT22;70512;42.122;24.732;2024-02-15T14:07:03;20.90;26.80
79760;DHT22;70512;42.122;24.732;2024-02-15T14:09:30;20.10;28.20
79760;DHT22;70512;42.122;24.732;2024-02-15T14:11:57;19.50;29.20
79760;DHT22;70512;42.122;24.732;2024-02-15T14:14:25;19.10;29.50
79760;DHT22;70512;42.122;24.732;2024-02-15T14:16:53;18.70;30.10
79760;DHT22;70512;42.122;24.732;2024-02-15T14:19:21;18.60;31.50
79760;DHT22;70512;42.122;24.732;2024-02-15T14:21:50;18.30;31.50
79760;DHT22;70512;42.122;24.732;2024-02-15T14:24:20;17.80;32.00
79760;DHT22;70512;42.122;24.732;2024-02-15T14:26:49;17.60;32.60
79760;DHT22;70512;42.122;24.732;2024-02-15T14:29:17;16.80;33.70
79760;DHT22;70512;42.122;24.732;2024-02-15T14:31:46;16.80;34.40
79760;DHT22;70512;42.122;24.732;2024-02-15T14:34:32;16.70;34.30
79760;DHT22;70512;42.122;24.732;2024-02-15T14:37:01;16.70;34.30
79760;DHT22;70512;42.122;24.732;2024-02-15T14:39:30;16.50;34.80
79760;DHT22;70512;42.122;24.732;2024-02-15T14:41:58;16.20;35.80
79760;DHT22;70512;42.122;24.732;2024-02-15T14:44:26;16.10;36.80
79760;DHT22;70512;42.122;24.732;2024-02-15T14:46:53;16.10;37.30
79760;DHT22;70512;42.122;24.732;2024-02-15T14:49:21;15.90;36.50
79760;DHT22;70512;42.122;24.732;2024-02-15T14:51:49;16.00;37.20
79760;DHT22;70512;42.122;24.732;2024-02-15T14:54:17;15.80;37.20
79760;DHT22;70512;42.122;24.732;2024-02-15T14:56:45;15.60;38.10
79760;DHT22;70512;42.122;24.732;2024-02-15T14:59:13;15.20;38.80
79760;DHT22;70512;42.122;24.732;2024-02-15T15:01:42;15.10;40.00
79760;DHT22;70512;42.122;24.732;2024-02-15T15:04:11;15.10;39.90
79760;DHT22;70512;42.122;24.732;2024-02-15T15:06:39;15.00;40.20
79760;DHT22;70512;42.122;24.732;2024-02-15T15:09:24;15.10;40.70
79760;DHT22;70512;42.122;24.732;2024-02-15T15:12:10;15.00;40.50
79760;DHT22;70512;42.122;24.732;2024-02-15T15:14:56;15.00;41.40
79760;DHT22;70512;42.122;24.732;2024-02-15T15:17:23;14.80;41.10
79760;DHT22;70512;42.122;24.732;2024-02-15T15:19:53;14.70;41.30
79760;DHT22;70512;42.122;24.732;2024-02-15T15:22:20;14.70;41.60
79760;DHT22;70512;42.122;24.732;2024-02-15T15:24:48;14.70;41.60
79760;DHT22;70512;42.122;24.732;2024-02-15T15:27:16;14.60;41.90
79760;DHT22;70512;42.122;24.732;2024-02-15T15:29:45;14.60;42.60
79760;DHT22;70512;42.122;24.732;2024-02-15T15:32:12;14.50;41.90
79760;DHT22;70512;42.122;24.732;2024-02-15T15:34:40;14.50;42.30
79760;DHT22;70512;42.122;24.732;2024-02-15T15:37:08;14.50;42.50
79760;DHT22;70512;42.122;24.732;2024-02-15T15:39:37;14.50;42.60
79760;DHT22;70512;42.122;24.732;2024-02-15T15:42:05;14.50;43.10
79760;DHT22;70512;42.122;24.732;2024-02-15T15:44:34;14.40;42.80
79760;DHT22;70512;42.122;24.732;2024-02-15T15:47:04;14.30;43.00
79760;DHT22;70512;42.122;24.732;2024-02-15T15:49:31;14.20;43.50
79760;DHT22;70512;42.122;24.732;2024-02-15T15:51:59;14.30;43.70
79760;DHT22;70512;42.122;24.732;2024-02-15T15:54:27;14.20;44.30
79760;DHT22;70512;42.122;24.732;2024-02-15T15:56:55;14.10;44.40